Time;durP1;ratioP1;P1;durP2;ratioP2;P2;SDS_P1;SDS_P2;PMS_P1;PMS_P2;Temp;Humidity;BMP_temperature;BMP_pressure;BME280_temperature;BME280_humidity;BME280_pressure;Samples;Min_cycle;Max_cycle;Signal;HPM_P1;HPM_P2
2022/05/31 00:00:37;;;;;;;4.38;2.17;;;11.70;68.00;;;;;;5051319;28;20049;-82
2022/05/31 00:03:10;;;;;;;3.85;1.95;;;11.70;68.00;;;;;;5051313;28;20140;-82
2022/05/31 00:05:37;;;;;;;4.57;2.35;;;11.70;68.10;;;;;;5051324;28;20103;-82
2022/05/31 00:08:04;;;;;;;4.07;2.28;;;11.70;68.10;;;;;;5051216;28;20102;-83
2022/05/31 00:10:32;;;;;;;4.15;2.03;;;11.70;68.20;;;;;;5051062;28;20041;-83
2022/05/31 00:12:59;;;;;;;5.57;2.28;;;11.60;68.30;;;;;;5051834;28;20106;-82
2022/05/31 00:15:25;;;;;;;5.45;2.33;;;11.70;68.30;;;;;;5051191;28;20106;-82
2022/05/31 00:17:52;;;;;;;3.42;1.92;;;11.60;68.40;;;;;;5051146;28;20468;-83
2022/05/31 00:20:20;;;;;;;4.55;2.08;;;11.60;68.40;;;;;;5051172;28;20498;-83
2022/05/31 00:22:47;;;;;;;4.70;2.08;;;11.60;68.50;;;;;;5051139;28;20472;-82
2022/05/31 00:25:15;;;;;;;4.60;2.15;;;11.60;68.50;;;;;;5051454;28;20049;-83
2022/05/31 00:27:42;;;;;;;4.03;2.30;;;11.60;68.60;;;;;;5050860;28;20099;-83
2022/05/31 00:30:11;;;;;;;4.15;2.08;;;11.60;68.60;;;;;;5051149;28;20053;-82
2022/05/31 00:32:44;;;;;;;4.20;2.00;;;11.60;68.70;;;;;;5051036;28;20178;-83
2022/05/31 00:35:16;;;;;;;4.65;2.20;;;11.60;68.70;;;;;;5054785;28;20041;-83
2022/05/31 00:37:44;;;;;;;3.90;2.10;;;11.50;68.80;;;;;;5054918;28;20057;-83
2022/05/31 00:40:13;;;;;;;5.25;2.05;;;11.50;68.80;;;;;;5054552;28;20049;-84
2022/05/31 00:42:54;;;;;;;4.20;2.13;;;11.50;68.80;;;;;;5054809;28;20045;-84
2022/05/31 00:45:36;;;;;;;3.95;2.22;;;11.50;68.90;;;;;;5054750;28;20045;-84
2022/05/31 00:48:06;;;;;;;4.28;2.25;;;11.50;68.90;;;;;;5054574;28;20406;-83
2022/05/31 00:50:43;;;;;;;3.75;2.20;;;11.50;68.90;;;;;;5054541;28;20049;-83
2022/05/31 00:53:16;;;;;;;5.22;2.42;;;11.50;69.00;;;;;;5054232;28;20056;-83
2022/05/31 00:55:51;;;;;;;3.75;2.15;;;11.50;69.00;;;;;;5054601;28;20040;-83
2022/05/31 00:58:37;;;;;;;3.80;2.10;;;11.50;69.10;;;;;;5050946;28;20053;-82
2022/05/31 01:01:07;;;;;;;5.10;2.25;;;11.50;69.10;;;;;;5053612;28;20049;-83
2022/05/31 01:03:42;;;;;;;5.50;2.63;;;11.50;69.10;;;;;;5054087;28;20060;-84
2022/05/31 01:06:12;;;;;;;4.47;2.47;;;11.50;69.20;;;;;;5054256;28;20041;-85
2022/05/31 01:08:44;;;;;;;5.03;2.47;;;11.40;69.10;;;;;;5033415;28;20094;-83
2022/05/31 01:11:19;;;;;;;5.28;2.58;;;11.40;69.20;;;;;;5035524;28;20041;-83
2022/05/31 01:13:46;;;;;;;5.63;2.67;;;11.40;69.20;;;;;;5054179;28;20572;-83
2022/05/31 01:16:14;;;;;;;3.95;2.40;;;11.40;69.20;;;;;;5054638;28;20049;-83
2022/05/31 01:18:42;;;;;;;5.40;2.65;;;11.40;69.20;;;;;;5054092;28;20080;-84
2022/05/31 01:21:09;;;;;;;5.47;2.70;;;11.40;69.30;;;;;;5053955;28;20098;-84
2022/05/31 01:24:07;;;;;;;4.90;2.58;;;11.40;69.30;;;;;;5053590;28;20041;-83
2022/05/31 01:27:06;;;;;;;4.93;2.78;;;11.40;69.40;;;;;;5053941;28;20045;-83
2022/05/31 01:29:37;;;;;;;5.07;2.83;;;11.40;69.40;;;;;;5053733;28;20049;-83
2022/05/31 01:32:12;;;;;;;5.43;2.85;;;11.30;69.40;;;;;;5053972;28;20457;-82
2022/05/31 01:35:06;;;;;;;5.43;2.45;;;11.30;69.40;;;;;;5053883;28;20103;-82
2022/05/31 01:37:45;;;;;;;4.38;2.35;;;11.30;69.50;;;;;;5051537;28;20465;-82
2022/05/31 01:40:18;;;;;;;3.92;2.50;;;11.30;69.50;;;;;;5053736;28;20052;-82
2022/05/31 01:42:46;;;;;;;4.97;2.63;;;11.20;69.50;;;;;;5053631;28;20052;-82
2022/05/31 01:45:21;;;;;;;5.00;2.40;;;11.20;69.60;;;;;;5053463;28;20091;-82
2022/05/31 01:47:50;;;;;;;4.55;2.90;;;11.20;69.70;;;;;;5053421;28;20096;-82
2022/05/31 01:50:19;;;;;;;5.85;2.80;;;11.20;69.70;;;;;;5035976;28;20453;-82
2022/05/31 01:52:49;;;;;;;4.13;2.75;;;11.20;69.70;;;;;;5052950;28;20095;-83
2022/05/31 01:55:16;;;;;;;5.03;2.70;;;11.20;69.70;;;;;;5049813;28;20111;-82
2022/05/31 01:57:48;;;;;;;5.10;3.00;;;11.20;69.70;;;;;;5053071;28;20183;-82
2022/05/31 02:00:16;;;;;;;4.30;2.55;;;11.10;69.70;;;;;;5053296;28;20057;-82
2022/05/31 02:02:47;;;;;;;5.25;3.00;;;11.10;69.70;;;;;;5053267;28;20187;-82
2022/05/31 02:05:15;;;;;;;5.38;2.90;;;11.10;69.80;;;;;;5052990;28;20052;-82
2022/05/31 02:07:51;;;;;;;5.90;2.88;;;11.00;69.80;;;;;;5053062;28;20055;-82
2022/05/31 02:10:18;;;;;;;5.70;2.88;;;11.10;69.80;;;;;;5049715;28;20466;-82
2022/05/31 02:12:45;;;;;;;6.68;3.17;;;11.00;69.80;;;;;;5053230;28;20498;-82
2022/05/31 02:15:12;;;;;;;4.70;2.85;;;11.00;69.90;;;;;;5052952;28;20049;-83
2022/05/31 02:17:39;;;;;;;5.43;3.25;;;11.00;69.90;;;;;;5052874;28;20552;-83
2022/05/31 02:20:06;;;;;;;5.10;2.92;;;10.90;69.90;;;;;;5052484;28;20106;-84
2022/05/31 02:22:33;;;;;;;4.53;2.88;;;10.90;69.90;;;;;;5052982;28;20583;-83
2022/05/31 02:25:00;;;;;;;5.20;2.90;;;10.90;69.90;;;;;;5051385;28;20060;-84
2022/05/31 02:27:27;;;;;;;6.03;3.08;;;10.90;69.90;;;;;;5052694;28;20044;-83
2022/05/31 02:29:54;;;;;;;6.00;2.90;;;10.90;69.90;;;;;;5052598;28;20407;-83
2022/05/31 02:32:21;;;;;;;4.97;2.92;;;10.90;69.90;;;;;;5052744;28;20450;-83
2022/05/31 02:34:50;;;;;;;7.63;3.35;;;10.80;70.00;;;;;;5036521;28;20111;-83
2022/05/31 02:37:18;;;;;;;4.95;2.92;;;10.80;70.00;;;;;;5049118;28;20049;-82
2022/05/31 02:39:46;;;;;;;6.47;2.80;;;10.80;69.90;;;;;;5052630;28;20118;-82
2022/05/31 02:42:14;;;;;;;4.65;3.00;;;10.70;70.00;;;;;;5052383;28;20049;-82
2022/05/31 02:44:42;;;;;;;6.72;3.28;;;10.70;70.00;;;;;;5052455;28;20048;-83
2022/05/31 02:47:10;;;;;;;4.43;2.90;;;10.70;70.00;;;;;;5052475;28;20052;-83
2022/05/31 02:49:39;;;;;;;5.50;3.17;;;10.70;70.00;;;;;;5051905;28;20055;-82
2022/05/31 02:52:06;;;;;;;6.30;3.17;;;10.60;70.00;;;;;;5052887;28;20049;-82
2022/05/31 02:54:33;;;;;;;5.70;3.20;;;10.60;70.00;;;;;;5052265;28;20049;-83
2022/05/31 02:57:01;;;;;;;5.15;3.20;;;10.60;70.10;;;;;;5051605;28;20103;-83
2022/05/31 02:59:28;;;;;;;6.57;3.10;;;10.50;70.10;;;;;;5051938;28;20502;-84
2022/05/31 03:01:55;;;;;;;7.38;3.40;;;10.50;70.10;;;;;;5052282;28;20099;-83
2022/05/31 03:04:22;;;;;;;5.72;3.33;;;10.50;70.20;;;;;;5052146;28;20095;-83
2022/05/31 03:06:49;;;;;;;5.57;3.70;;;10.50;70.20;;;;;;5052163;28;20099;-83
2022/05/31 03:09:16;;;;;;;7.05;3.65;;;10.40;70.20;;;;;;5033010;28;20490;-83
2022/05/31 03:11:57;;;;;;;6.20;3.55;;;10.40;70.20;;;;;;5051912;28;20060;-82
2022/05/31 03:14:32;;;;;;;5.03;3.35;;;10.40;70.30;;;;;;5051946;28;20457;-83
2022/05/31 03:17:07;;;;;;;6.93;3.90;;;10.40;70.30;;;;;;5051936;28;20075;-83
2022/05/31 03:19:40;;;;;;;6.55;4.00;;;10.30;70.30;;;;;;5051580;28;20052;-82
2022/05/31 03:22:14;;;;;;;6.18;3.53;;;10.30;70.30;;;;;;5052406;28;20628;-82
2022/05/31 03:24:46;;;;;;;5.72;3.58;;;10.30;70.30;;;;;;5033053;28;20053;-82
2022/05/31 03:27:14;;;;;;;6.18;3.72;;;10.20;70.40;;;;;;5051638;28;20041;-83
2022/05/31 03:29:45;;;;;;;8.15;4.10;;;10.20;70.40;;;;;;5051602;28;20053;-82
2022/05/31 03:32:14;;;;;;;6.70;3.95;;;10.20;70.40;;;;;;5051476;28;20502;-82
2022/05/31 03:34:41;;;;;;;6.22;3.40;;;10.20;70.40;;;;;;5051758;28;20064;-83
2022/05/31 03:37:08;;;;;;;8.55;4.07;;;10.20;70.40;;;;;;5052241;28;20053;-83
2022/05/31 03:39:35;;;;;;;6.57;3.80;;;10.10;70.50;;;;;;5051442;28;20084;-82
2022/05/31 03:42:04;;;;;;;7.18;4.00;;;10.00;70.40;;;;;;5051501;28;20103;-82
2022/05/31 03:44:31;;;;;;;5.78;3.67;;;10.00;70.50;;;;;;5051578;28;20052;-82
2022/05/31 03:46:58;;;;;;;5.45;3.97;;;10.00;70.50;;;;;;5051198;28;20498;-84
2022/05/31 03:49:25;;;;;;;8.20;3.85;;;10.00;70.50;;;;;;5051655;28;20534;-84
2022/05/31 03:51:52;;;;;;;4.70;3.38;;;9.90;70.50;;;;;;5050826;28;20049;-84
2022/05/31 03:54:19;;;;;;;6.30;3.95;;;9.90;70.50;;;;;;5051272;28;20053;-83
2022/05/31 03:56:45;;;;;;;8.95;4.40;;;9.90;70.50;;;;;;5051222;28;20103;-83
2022/05/31 03:59:12;;;;;;;7.72;4.20;;;9.90;70.40;;;;;;5051480;28;20583;-82
2022/05/31 04:01:39;;;;;;;6.40;4.35;;;9.90;70.40;;;;;;5051137;28;20045;-83
2022/05/31 04:04:06;;;;;;;8.07;4.47;;;9.90;70.40;;;;;;5051901;28;20057;-83
2022/05/31 04:06:35;;;;;;;7.63;4.47;;;9.80;70.40;;;;;;5051320;28;20095;-83
2022/05/31 04:09:03;;;;;;;6.30;3.95;;;9.80;70.30;;;;;;5052987;28;20091;-82
2022/05/31 04:11:31;;;;;;;8.23;4.10;;;9.80;70.30;;;;;;5055201;28;20502;-83
2022/05/31 04:13:58;;;;;;;8.77;4.55;;;9.70;70.30;;;;;;5036584;28;20461;-82
2022/05/31 04:16:26;;;;;;;8.05;4.65;;;9.70;70.30;;;;;;5055015;28;20118;-84
2022/05/31 04:18:54;;;;;;;6.25;4.40;;;9.70;70.30;;;;;;5054898;28;20049;-83
2022/05/31 04:21:21;;;;;;;8.13;4.70;;;9.60;70.40;;;;;;5055151;28;20053;-83
2022/05/31 04:23:58;;;;;;;7.00;4.13;;;9.60;70.40;;;;;;5037431;28;20052;-83
2022/05/31 04:26:46;;;;;;;6.63;4.05;;;9.60;70.40;;;;;;5055008;28;20059;-83
2022/05/31 04:29:13;;;;;;;8.77;4.20;;;9.60;70.40;;;;;;5054942;28;20056;-82
2022/05/31 04:31:40;;;;;;;6.45;4.03;;;9.60;70.40;;;;;;5054820;28;20053;-83
2022/05/31 04:34:07;;;;;;;9.68;4.25;;;9.50;70.40;;;;;;5055533;28;20057;-82
2022/05/31 04:36:34;;;;;;;10.40;4.22;;;9.50;70.40;;;;;;5054931;28;20049;-81
2022/05/31 04:39:03;;;;;;;9.23;4.28;;;9.50;70.40;;;;;;5054624;28;20509;-82
2022/05/31 04:41:31;;;;;;;6.82;4.25;;;9.50;70.50;;;;;;5054648;28;20053;-82
2022/05/31 04:44:00;;;;;;;7.80;4.35;;;9.50;70.50;;;;;;5054835;28;20041;-81
2022/05/31 04:46:30;;;;;;;7.40;4.55;;;9.40;70.50;;;;;;5054398;28;20107;-82
2022/05/31 04:48:59;;;;;;;7.53;4.07;;;9.40;70.60;;;;;;5054948;28;20455;-82
2022/05/31 04:51:29;;;;;;;6.10;4.18;;;9.40;70.60;;;;;;5054583;28;20045;-82
2022/05/31 04:53:56;;;;;;;7.45;4.13;;;9.40;70.60;;;;;;5054495;28;20568;-82
2022/05/31 04:56:23;;;;;;;9.63;4.25;;;9.40;70.60;;;;;;5054359;28;20041;-82
2022/05/31 04:58:52;;;;;;;8.25;4.60;;;9.40;70.70;;;;;;5034693;28;20045;-82
2022/05/31 05:01:20;;;;;;;7.38;4.03;;;9.40;70.70;;;;;;5030918;28;20049;-82
2022/05/31 05:03:47;;;;;;;6.30;4.15;;;9.40;70.80;;;;;;5034711;28;20081;-83
2022/05/31 05:06:16;;;;;;;7.28;4.43;;;9.40;70.80;;;;;;5034474;28;20048;-82
2022/05/31 05:08:43;;;;;;;6.22;3.90;;;9.40;70.90;;;;;;5034333;28;20049;-82
2022/05/31 05:11:13;;;;;;;9.27;4.45;;;9.40;70.90;;;;;;5034442;28;20100;-81
2022/05/31 05:13:41;;;;;;;5.15;4.07;;;9.40;71.00;;;;;;5033981;28;20099;-82
2022/05/31 05:16:09;;;;;;;7.95;4.65;;;9.40;71.00;;;;;;5034829;28;20465;-82
2022/05/31 05:18:37;;;;;;;6.45;3.92;;;9.40;71.00;;;;;;5031834;28;20055;-82
2022/05/31 05:21:06;;;;;;;6.25;4.30;;;9.50;71.10;;;;;;5033709;28;20107;-82
2022/05/31 05:23:33;;;;;;;6.90;4.70;;;9.50;71.10;;;;;;5034077;28;20106;-83
2022/05/31 05:26:01;;;;;;;7.63;4.43;;;9.50;71.20;;;;;;5034167;28;20054;-82
2022/05/31 05:31:33;;;;;;;9.65;4.93;;;9.50;71.20;;;;;;5034310;28;20049;-83
2022/05/31 05:34:01;;;;;;;6.85;4.47;;;9.60;71.30;;;;;;5034383;28;20441;-83
2022/05/31 05:36:29;;;;;;;6.78;4.68;;;9.60;71.30;;;;;;5033750;28;20076;-83
2022/05/31 05:38:56;;;;;;;6.93;4.03;;;9.60;71.30;;;;;;5027848;28;20060;-83
2022/05/31 05:41:26;;;;;;;6.88;3.70;;;9.70;71.30;;;;;;5035268;28;20080;-83
2022/05/31 05:43:53;;;;;;;6.10;4.00;;;9.70;71.30;;;;;;5029507;28;20049;-82
2022/05/31 05:46:23;;;;;;;6.70;3.97;;;9.70;71.30;;;;;;5035898;28;20053;-82
2022/05/31 05:48:52;;;;;;;6.30;4.10;;;9.70;71.30;;;;;;5035140;28;20132;-82
2022/05/31 05:51:21;;;;;;;7.35;3.70;;;9.80;71.30;;;;;;5033585;28;20111;-83
2022/05/31 05:53:48;;;;;;;5.82;3.97;;;9.90;71.30;;;;;;5033700;28;20113;-82
2022/05/31 05:56:15;;;;;;;5.70;3.75;;;9.90;71.30;;;;;;5033445;28;20159;-82
2022/05/31 05:58:42;;;;;;;5.78;3.75;;;9.90;71.30;;;;;;5049907;28;20118;-82
2022/05/31 06:01:24;;;;;;;6.15;3.70;;;9.90;71.30;;;;;;5056828;28;20053;-83
2022/05/31 06:03:56;;;;;;;7.55;4.50;;;10.00;71.30;;;;;;5054990;28;20049;-81
2022/05/31 06:06:24;;;;;;;8.18;4.18;;;10.00;71.20;;;;;;5053407;28;20529;-82
2022/05/31 06:09:03;;;;;;;6.47;3.70;;;10.10;71.20;;;;;;5053287;28;20041;-82
2022/05/31 06:11:45;;;;;;;8.43;3.75;;;10.20;71.20;;;;;;5052743;28;20070;-82
2022/05/31 06:14:32;;;;;;;5.70;3.72;;;10.20;71.10;;;;;;5051640;28;20457;-82
2022/05/31 06:17:06;;;;;;;8.15;3.85;;;10.30;71.10;;;;;;5018085;28;20099;-82
2022/05/31 06:19:35;;;;;;;6.72;3.90;;;10.40;71.00;;;;;;5052804;28;20049;-81
2022/05/31 06:22:04;;;;;;;7.15;3.70;;;10.40;71.00;;;;;;5055451;28;20095;-82
2022/05/31 06:24:33;;;;;;;5.47;3.85;;;10.50;71.00;;;;;;5052628;28;20114;-83
2022/05/31 06:26:59;;;;;;;8.52;4.15;;;10.60;70.90;;;;;;5054672;28;20041;-82
2022/05/31 06:29:31;;;;;;;6.45;3.38;;;10.60;70.90;;;;;;5052818;28;20060;-82
2022/05/31 06:31:58;;;;;;;6.95;3.80;;;10.70;70.90;;;;;;5048570;28;20466;-82
2022/05/31 06:34:25;;;;;;;4.95;3.22;;;10.80;70.80;;;;;;5054538;28;20395;-81
2022/05/31 06:37:03;;;;;;;5.55;3.50;;;10.90;70.80;;;;;;5053381;28;20056;-83
2022/05/31 06:39:32;;;;;;;4.70;3.30;;;11.00;70.70;;;;;;5052296;28;20052;-84
2022/05/31 06:41:59;;;;;;;7.15;3.63;;;11.00;70.60;;;;;;5052560;28;20048;-82
2022/05/31 06:44:26;;;;;;;6.07;3.40;;;11.20;70.50;;;;;;5052835;28;20507;-82
2022/05/31 06:46:56;;;;;;;5.75;3.40;;;11.20;70.50;;;;;;5048732;28;20107;-83
2022/05/31 06:49:23;;;;;;;7.72;3.47;;;11.40;70.50;;;;;;5055134;28;20084;-82
2022/05/31 06:57:20;;;;;;;5.05;3.63;;;11.60;70.40;;;;;;5053386;28;20053;-82
2022/05/31 06:59:47;;;;;;;5.97;3.15;;;11.70;70.30;;;;;;5053870;28;20506;-82
2022/05/31 07:02:14;;;;;;;7.82;3.15;;;11.90;70.30;;;;;;5036543;28;20048;-82
2022/05/31 07:04:41;;;;;;;7.03;2.97;;;11.90;70.20;;;;;;5050073;28;20503;-82
2022/05/31 07:07:08;;;;;;;6.28;2.83;;;12.00;70.20;;;;;;5055447;28;20106;-82
2022/05/31 07:09:35;;;;;;;7.10;2.90;;;12.10;70.10;;;;;;5051410;28;20098;-82
2022/05/31 07:12:02;;;;;;;4.85;2.75;;;12.30;69.90;;;;;;5052121;28;20502;-82
2022/05/31 07:14:29;;;;;;;5.18;2.90;;;12.40;69.80;;;;;;5051830;28;20048;-83
2022/05/31 07:16:56;;;;;;;4.82;2.60;;;12.40;69.50;;;;;;5048413;28;20045;-82
2022/05/31 07:19:23;;;;;;;5.97;2.40;;;12.60;69.40;;;;;;5054808;28;20684;-82
2022/05/31 07:21:51;;;;;;;5.80;2.65;;;12.70;69.20;;;;;;5053392;28;20063;-82
2022/05/31 07:24:18;;;;;;;5.93;2.10;;;12.80;69.00;;;;;;5036530;28;20461;-81
2022/05/31 07:26:48;;;;;;;5.20;2.22;;;12.90;68.70;;;;;;5051772;28;20044;-82
2022/05/31 07:29:15;;;;;;;3.78;2.30;;;13.00;68.50;;;;;;5051017;28;20041;-82
2022/05/31 07:31:44;;;;;;;6.32;2.20;;;13.10;68.20;;;;;;5049481;28;20499;-82
2022/05/31 07:34:31;;;;;;;4.43;1.95;;;13.30;67.90;;;;;;5063487;28;20083;-82
2022/05/31 07:36:58;;;;;;;4.63;1.80;;;13.40;67.60;;;;;;5055467;28;20462;-82
2022/05/31 07:39:25;;;;;;;4.75;2.08;;;13.50;67.30;;;;;;5052575;28;20048;-83
2022/05/31 07:41:54;;;;;;;4.63;1.70;;;13.60;67.00;;;;;;5051565;28;20470;-83
2022/05/31 07:44:21;;;;;;;5.65;1.83;;;13.70;66.70;;;;;;5051442;28;20044;-83
2022/05/31 07:46:49;;;;;;;5.20;1.70;;;13.80;66.40;;;;;;5031873;28;20037;-83
2022/05/31 07:49:16;;;;;;;7.32;2.03;;;13.90;66.10;;;;;;5055898;28;20611;-83
2022/05/31 07:51:43;;;;;;;4.70;1.73;;;14.00;65.80;;;;;;5051526;28;20049;-83
2022/05/31 07:54:09;;;;;;;5.03;1.70;;;14.20;65.50;;;;;;5051052;28;20041;-83
2022/05/31 07:56:36;;;;;;;4.50;1.50;;;14.30;65.30;;;;;;5051295;28;20049;-84
2022/05/31 07:59:04;;;;;;;3.60;1.70;;;14.40;64.90;;;;;;5049095;28;20046;-83
2022/05/31 08:01:31;;;;;;;3.42;1.38;;;14.40;64.60;;;;;;5052192;28;20565;-83
2022/05/31 08:03:58;;;;;;;3.35;1.50;;;14.50;64.30;;;;;;5053376;28;20052;-83
2022/05/31 08:06:31;;;;;;;3.97;1.42;;;14.70;64.10;;;;;;5051433;28;20107;-83
2022/05/31 08:08:58;;;;;;;4.53;1.60;;;14.70;63.80;;;;;;5052514;28;20098;-83
2022/05/31 08:11:28;;;;;;;3.50;1.55;;;14.90;63.50;;;;;;5051395;28;20044;-83
2022/05/31 08:13:56;;;;;;;3.72;1.40;;;14.90;63.20;;;;;;5049584;28;20049;-82
2022/05/31 08:16:25;;;;;;;12.98;1.70;;;15.10;63.00;;;;;;5053895;28;20053;-82
2022/05/31 08:18:55;;;;;;;4.25;1.65;;;15.20;62.70;;;;;;5053117;28;20099;-82
2022/05/31 08:21:28;;;;;;;3.67;1.45;;;15.30;62.40;;;;;;5051258;28;20041;-82
2022/05/31 08:24:03;;;;;;;5.03;1.63;;;15.40;62.20;;;;;;5050916;28;20045;-82
2022/05/31 08:26:50;;;;;;;3.58;1.50;;;15.40;61.90;;;;;;5051559;28;20331;-82
2022/05/31 08:29:17;;;;;;;3.30;1.20;;;15.50;61.60;;;;;;5050435;28;20063;-82
2022/05/31 08:31:44;;;;;;;3.92;1.38;;;15.60;61.30;;;;;;5048595;28;20062;-82
2022/05/31 08:34:13;;;;;;;3.90;1.63;;;15.80;61.00;;;;;;5054816;28;20049;-82
2022/05/31 08:36:40;;;;;;;8.63;1.30;;;15.80;60.80;;;;;;5050823;28;20049;-83
2022/05/31 08:39:07;;;;;;;4.43;1.20;;;15.90;60.50;;;;;;5051203;28;20469;-83
2022/05/31 08:41:44;;;;;;;4.53;1.40;;;16.00;60.30;;;;;;5051259;28;20465;-82
2022/05/31 08:44:28;;;;;;;11.30;1.50;;;16.20;60.00;;;;;;5049772;28;20045;-83
2022/05/31 08:47:11;;;;;;;4.53;1.25;;;16.20;59.70;;;;;;5033772;28;20108;-83
2022/05/31 08:53:00;;;;;;;3.58;1.20;;;16.40;59.10;;;;;;5063628;28;20072;-82
2022/05/31 08:58:23;;;;;;;5.50;1.30;;;16.60;58.60;;;;;;5058607;28;20091;-83
2022/05/31 09:00:53;;;;;;;3.75;1.40;;;16.70;58.40;;;;;;5055943;28;20465;-82
2022/05/31 09:03:36;;;;;;;3.72;1.33;;;16.80;58.20;;;;;;5054434;28;20055;-82
2022/05/31 09:06:09;;;;;;;4.35;1.35;;;16.90;58.00;;;;;;5054128;28;20418;-82
2022/05/31 09:08:42;;;;;;;1.58;0.80;;;17.00;57.80;;;;;;5054014;28;20048;-83
2022/05/31 09:11:38;;;;;;;2.47;1.10;;;17.20;57.60;;;;;;5053848;28;20095;-82
2022/05/31 09:14:08;;;;;;;4.03;1.00;;;17.30;57.40;;;;;;5036822;28;20053;-83
2022/05/31 09:17:03;;;;;;;3.60;1.20;;;17.40;57.10;;;;;;5054411;28;20048;-83
2022/05/31 09:19:45;;;;;;;3.33;1.00;;;17.60;56.70;;;;;;4987431;28;20054;-83
2022/05/31 09:22:13;;;;;;;3.83;1.20;;;17.60;56.50;;;;;;4977251;28;20102;-85
2022/05/31 09:24:43;;;;;;;4.30;1.13;;;17.80;56.30;;;;;;4973097;28;20102;-84
2022/05/31 09:27:22;;;;;;;3.38;1.17;;;17.90;56.10;;;;;;4959934;28;20090;-84
2022/05/31 09:30:03;;;;;;;2.40;1.00;;;18.00;55.90;;;;;;4959834;28;20101;-85
2022/05/31 09:33:06;;;;;;;3.53;0.93;;;18.10;55.60;;;;;;4973133;28;20050;-83
2022/05/31 09:35:59;;;;;;;6.43;1.27;;;18.20;55.40;;;;;;4974289;28;20472;-83
2022/05/31 09:38:48;;;;;;;2.35;0.98;;;18.30;55.10;;;;;;4973004;28;20054;-83
2022/05/31 09:41:40;;;;;;;2.83;0.90;;;18.40;54.90;;;;;;4971965;28;20447;-83
2022/05/31 09:44:19;;;;;;;2.35;1.00;;;18.40;54.80;;;;;;4958240;28;20461;-83
2022/05/31 09:46:59;;;;;;;1.85;0.80;;;18.50;54.60;;;;;;4970280;28;20146;-83
2022/05/31 09:49:43;;;;;;;1.77;0.77;;;18.60;54.40;;;;;;4983845;28;20046;-83
2022/05/31 09:52:20;;;;;;;2.45;1.00;;;18.70;54.20;;;;;;4976055;28;20516;-83
2022/05/31 09:58:08;;;;;;;2.42;0.95;;;18.90;53.70;;;;;;5055013;28;20057;-83
2022/05/31 10:00:37;;;;;;;3.13;0.98;;;18.90;53.60;;;;;;5053552;28;20498;-82
2022/05/31 10:03:13;;;;;;;3.33;0.80;;;19.00;53.40;;;;;;5053526;28;20049;-84
2022/05/31 10:05:42;;;;;;;3.20;1.17;;;19.10;53.20;;;;;;5053272;28;20048;-84
2022/05/31 10:08:15;;;;;;;2.33;0.95;;;19.20;52.90;;;;;;5051256;28;20067;-84
2022/05/31 10:10:49;;;;;;;4.65;1.00;;;19.30;52.70;;;;;;5051352;28;20065;-83
2022/05/31 10:13:40;;;;;;;1.15;0.68;;;19.30;52.50;;;;;;5057662;28;20495;-83
2022/05/31 10:16:30;;;;;;;2.25;0.88;;;19.40;52.20;;;;;;5056243;28;20057;-83
2022/05/31 10:19:03;;;;;;;2.95;1.00;;;19.40;52.00;;;;;;5056367;28;20059;-83
2022/05/31 10:21:42;;;;;;;3.00;1.10;;;19.50;51.90;;;;;;5052986;28;20506;-83
2022/05/31 10:24:22;;;;;;;2.53;1.00;;;19.50;51.80;;;;;;5035311;28;20047;-83
2022/05/31 10:27:19;;;;;;;2.50;0.85;;;19.60;51.60;;;;;;5052767;28;20041;-83
2022/05/31 10:29:52;;;;;;;3.40;1.00;;;19.60;51.60;;;;;;5052816;28;20072;-83
2022/05/31 10:32:34;;;;;;;3.90;1.13;;;19.70;51.50;;;;;;5052337;28;20051;-82
2022/05/31 10:35:37;;;;;;;2.97;1.02;;;19.80;51.40;;;;;;5034158;28;20072;-83
2022/05/31 10:38:10;;;;;;;2.30;0.85;;;19.80;51.30;;;;;;5029595;28;20045;-83
2022/05/31 10:40:48;;;;;;;3.22;1.00;;;19.80;51.20;;;;;;5051850;28;20110;-83
2022/05/31 10:43:32;;;;;;;5.22;1.30;;;19.90;51.10;;;;;;5056723;28;20106;-82
2022/05/31 10:46:23;;;;;;;3.28;0.93;;;19.90;50.90;;;;;;5056590;28;20049;-82
2022/05/31 10:48:53;;;;;;;2.88;0.90;;;19.90;50.90;;;;;;5053361;28;20131;-82
2022/05/31 10:51:26;;;;;;;2.65;1.00;;;19.90;50.80;;;;;;5054007;28;20057;-82
2022/05/31 10:54:08;;;;;;;3.50;1.15;;;19.80;50.80;;;;;;5052504;28;20037;-82
2022/05/31 10:57:08;;;;;;;4.97;0.95;;;19.80;50.80;;;;;;5035931;28;20106;-83
2022/05/31 10:59:41;;;;;;;2.30;0.85;;;19.80;50.90;;;;;;5052553;28;20465;-82
2022/05/31 11:02:35;;;;;;;3.53;1.00;;;19.80;50.90;;;;;;5049975;28;20511;-82
2022/05/31 11:05:05;;;;;;;1.95;0.80;;;19.70;50.90;;;;;;5035004;28;20052;-82
2022/05/31 11:14:24;;;;;;;3.53;1.17;;;19.60;51.00;;;;;;5064406;28;20042;-83
2022/05/31 11:17:11;;;;;;;2.60;0.90;;;19.50;51.10;;;;;;5031782;28;20045;-83
2022/05/31 11:19:47;;;;;;;3.70;0.88;;;19.50;51.20;;;;;;5064174;28;20113;-82
2022/05/31 11:22:45;;;;;;;2.63;1.23;;;19.40;51.30;;;;;;5037925;28;20506;-82
2022/05/31 11:25:37;;;;;;;3.45;1.00;;;19.40;51.40;;;;;;5055729;28;20049;-82
2022/05/31 11:28:32;;;;;;;3.38;1.25;;;19.30;51.60;;;;;;5055115;28;20051;-82
2022/05/31 11:31:11;;;;;;;3.38;1.00;;;19.30;51.70;;;;;;5055238;28;20048;-83
2022/05/31 11:34:01;;;;;;;4.30;1.20;;;19.20;51.80;;;;;;5052016;28;20048;-82
2022/05/31 11:36:51;;;;;;;2.78;1.00;;;19.10;51.80;;;;;;5051755;28;20411;-82
2022/05/31 11:40:07;;;;;;;1.92;0.85;;;19.20;52.00;;;;;;5051553;28;20111;-82
2022/05/31 11:42:54;;;;;;;3.20;1.00;;;19.20;52.10;;;;;;4973578;28;20047;-82
2022/05/31 11:45:32;;;;;;;3.05;0.95;;;19.20;52.10;;;;;;4930572;29;20429;-82
2022/05/31 11:48:13;;;;;;;3.85;1.25;;;19.20;52.10;;;;;;4930930;29;20537;-83
2022/05/31 11:50:58;;;;;;;5.93;1.00;;;19.30;52.10;;;;;;4930751;29;20048;-83
2022/05/31 11:53:45;;;;;;;2.38;1.08;;;19.40;52.10;;;;;;4930683;29;20055;-83
2022/05/31 11:56:23;;;;;;;4.63;1.10;;;19.40;52.10;;;;;;4931140;29;20047;-83
2022/05/31 11:59:13;;;;;;;4.57;1.23;;;19.60;52.10;;;;;;4915971;29;20098;-82
2022/05/31 12:02:03;;;;;;;2.85;1.08;;;19.60;52.00;;;;;;4891444;29;20105;-83
2022/05/31 12:04:35;;;;;;;4.75;1.15;;;19.80;51.90;;;;;;4892134;29;20091;-82
2022/05/31 12:07:11;;;;;;;3.38;1.00;;;19.80;51.80;;;;;;4892127;29;20123;-83
2022/05/31 12:09:57;;;;;;;3.70;1.10;;;19.90;51.50;;;;;;4890268;29;20056;-82
2022/05/31 12:12:30;;;;;;;3.58;1.15;;;19.90;51.40;;;;;;4890232;29;20053;-83
2022/05/31 12:15:09;;;;;;;2.83;1.05;;;19.90;51.40;;;;;;4891114;29;20501;-82
2022/05/31 12:18:13;;;;;;;2.15;0.82;;;19.90;51.40;;;;;;4902973;29;20060;-82
2022/05/31 12:20:57;;;;;;;4.15;1.10;;;20.00;51.40;;;;;;4927746;29;20055;-83
2022/05/31 12:23:39;;;;;;;5.18;1.20;;;20.10;51.40;;;;;;4973410;28;20045;-83
2022/05/31 12:26:26;;;;;;;3.53;1.13;;;20.10;51.40;;;;;;4975175;28;20049;-82
2022/05/31 12:29:11;;;;;;;2.75;1.00;;;20.20;51.40;;;;;;4970287;28;20042;-82
2022/05/31 12:31:42;;;;;;;4.07;1.35;;;20.20;51.40;;;;;;4991673;28;20061;-83
2022/05/31 12:34:37;;;;;;;3.72;1.10;;;20.30;51.30;;;;;;4997517;28;20070;-82
2022/05/31 12:37:08;;;;;;;2.35;0.98;;;20.40;51.30;;;;;;4993042;28;20047;-83
2022/05/31 12:49:21;;;;;;;4.20;1.00;;;20.40;51.00;;;;;;5051635;28;20419;-83
2022/05/31 12:54:58;;;;;;;5.00;1.20;;;20.40;51.30;;;;;;5049009;28;20053;-81
2022/05/31 13:00:35;;;;;;;4.60;1.00;;;20.40;51.10;;;;;;5047012;28;20114;-83
2022/05/31 13:03:34;;;;;;;3.25;1.10;;;20.50;50.80;;;;;;5046776;28;20049;-82
2022/05/31 13:06:09;;;;;;;2.40;1.00;;;20.60;50.80;;;;;;5030559;28;20053;-82
2022/05/31 13:08:59;;;;;;;3.58;1.35;;;20.60;50.70;;;;;;5048024;28;20207;-83
2022/05/31 13:20:19;;;;;;;4.18;1.27;;;20.40;50.30;;;;;;5042975;28;20448;-85
2022/05/31 13:22:54;;;;;;;9.02;1.42;;;20.30;50.20;;;;;;5043222;28;20500;-85
2022/05/31 13:25:32;;;;;;;7.75;1.17;;;20.20;50.60;;;;;;5059967;28;20056;-85
2022/05/31 13:28:02;;;;;;;5.15;1.17;;;20.00;51.10;;;;;;5049666;28;20049;-85
2022/05/31 13:30:41;;;;;;;8.43;1.67;;;19.90;51.70;;;;;;5031203;28;20103;-85
2022/05/31 13:33:15;;;;;;;5.95;1.30;;;19.70;52.50;;;;;;5028250;28;20046;-84
2022/05/31 13:35:42;;;;;;;9.23;1.20;;;19.50;53.20;;;;;;5028738;28;20056;-85
2022/05/31 13:38:24;;;;;;;5.80;1.13;;;19.30;53.80;;;;;;5026765;28;20050;-85
2022/05/31 13:40:54;;;;;;;5.60;1.30;;;19.10;54.40;;;;;;5010240;28;20057;-85
2022/05/31 13:43:23;;;;;;;5.32;1.10;;;18.90;54.90;;;;;;5040410;28;20049;-85
2022/05/31 13:45:52;;;;;;;2.92;1.05;;;18.70;55.50;;;;;;5029569;28;20049;-86
2022/05/31 13:48:21;;;;;;;3.88;1.00;;;18.50;56.10;;;;;;5027951;28;20054;-86
2022/05/31 13:51:07;;;;;;;3.17;1.13;;;18.40;56.70;;;;;;5028569;28;20469;-85
2022/05/31 13:53:43;;;;;;;4.78;1.40;;;18.30;57.30;;;;;;5028103;28;20464;-86
2022/05/31 13:56:24;;;;;;;3.33;1.30;;;18.10;57.80;;;;;;5025804;28;20450;-85
2022/05/31 13:58:53;;;;;;;3.78;1.15;;;17.90;58.20;;;;;;5003380;28;20038;-85
2022/05/31 14:01:37;;;;;;;4.88;1.02;;;17.90;58.60;;;;;;5026951;28;20053;-85
2022/05/31 14:04:22;;;;;;;3.03;1.15;;;17.80;59.00;;;;;;5017325;28;20145;-84
2022/05/31 14:06:50;;;;;;;2.53;1.05;;;17.70;59.30;;;;;;5017192;28;20046;-84
2022/05/31 14:09:24;;;;;;;2.97;1.10;;;17.70;59.40;;;;;;5016284;28;20077;-84